sensor_id;sensor_type;location;lat;lon;timestamp;pressure;altitude;pressure_sealevel;temperature;humidity
62544;BME280;48597;49.030;1.822;2023-01-30T00:01:37;101845.28;;;19.68;35.20
62544;BME280;48597;49.030;1.822;2023-01-30T00:04:03;101840.38;;;19.69;35.12
62544;BME280;48597;49.030;1.822;2023-01-30T00:06:28;101833.41;;;19.70;35.12
62544;BME280;48597;49.030;1.822;2023-01-30T00:08:53;101821.97;;;19.70;35.14
62544;BME280;48597;49.030;1.822;2023-01-30T00:11:19;101813.41;;;19.70;35.07
62544;BME280;48597;49.030;1.822;2023-01-30T00:13:45;101813.41;;;19.70;35.24
62544;BME280;48597;49.030;1.822;2023-01-30T00:16:11;101803.59;;;19.71;35.01
62544;BME280;48597;49.030;1.822;2023-01-30T00:18:37;101797.88;;;19.71;35.14
62544;BME280;48597;49.030;1.822;2023-01-30T00:21:04;101785.59;;;19.70;35.16
62544;BME280;48597;49.030;1.822;2023-01-30T00:23:30;101783.56;;;19.71;34.99
62544;BME280;48597;49.030;1.822;2023-01-30T00:25:56;101786.03;;;19.69;35.08
62544;BME280;48597;49.030;1.822;2023-01-30T00:28:21;101794.63;;;19.69;35.06
62544;BME280;48597;49.030;1.822;2023-01-30T00:30:47;101793.78;;;19.68;35.15
62544;BME280;48597;49.030;1.822;2023-01-30T00:33:12;101783.59;;;19.67;35.23
62544;BME280;48597;49.030;1.822;2023-01-30T00:35:42;101783.59;;;19.67;34.97
62544;BME280;48597;49.030;1.822;2023-01-30T00:38:07;101778.69;;;19.68;35.10
62544;BME280;48597;49.030;1.822;2023-01-30T00:40:32;101775.81;;;19.68;35.09
62544;BME280;48597;49.030;1.822;2023-01-30T00:42:58;101764.00;;;19.66;35.08
62544;BME280;48597;49.030;1.822;2023-01-30T00:45:42;101764.00;;;19.66;35.22
62544;BME280;48597;49.030;1.822;2023-01-30T00:48:27;101749.69;;;19.66;35.22
62544;BME280;48597;49.030;1.822;2023-01-30T00:50:53;101747.66;;;19.66;35.16
62544;BME280;48597;49.030;1.822;2023-01-30T00:53:18;101747.66;;;19.66;34.93
62544;BME280;48597;49.030;1.822;2023-01-30T00:55:43;101738.25;;;19.66;35.07
62544;BME280;48597;49.030;1.822;2023-01-30T00:58:09;101743.16;;;19.65;35.19
62544;BME280;48597;49.030;1.822;2023-01-30T01:00:35;101737.44;;;19.65;35.07
62544;BME280;48597;49.030;1.822;2023-01-30T01:03:00;101739.50;;;19.65;35.07
62544;BME280;48597;49.030;1.822;2023-01-30T01:05:26;101735.41;;;19.66;35.14
62544;BME280;48597;49.030;1.822;2023-01-30T01:07:51;101740.31;;;19.65;35.10
62544;BME280;48597;49.030;1.822;2023-01-30T01:10:16;101734.16;;;19.67;35.13
62544;BME280;48597;49.030;1.822;2023-01-30T01:12:42;101732.53;;;19.66;35.15
62544;BME280;48597;49.030;1.822;2023-01-30T01:15:08;101736.22;;;19.66;35.06
62544;BME280;48597;49.030;1.822;2023-01-30T01:17:34;101726.00;;;19.65;35.10
62544;BME280;48597;49.030;1.822;2023-01-30T01:19:59;101726.81;;;19.66;35.15
62544;BME280;48597;49.030;1.822;2023-01-30T01:22:24;101729.66;;;19.66;35.14
62544;BME280;48597;49.030;1.822;2023-01-30T01:24:49;101728.44;;;19.67;35.13
62544;BME280;48597;49.030;1.822;2023-01-30T01:27:15;101721.91;;;19.66;35.18
62544;BME280;48597;49.030;1.822;2023-01-30T01:29:43;101719.84;;;19.67;35.09
62544;BME280;48597;49.030;1.822;2023-01-30T01:32:09;101721.91;;;19.66;35.18
62544;BME280;48597;49.030;1.822;2023-01-30T01:34:35;101730.50;;;19.66;35.21
62544;BME280;48597;49.030;1.822;2023-01-30T01:37:00;101727.19;;;19.68;35.25
62544;BME280;48597;49.030;1.822;2023-01-30T01:39:25;101719.44;;;19.68;35.24
62544;BME280;48597;49.030;1.822;2023-01-30T01:42:10;101718.63;;;19.68;35.17
62544;BME280;48597;49.030;1.822;2023-01-30T01:47:20;101719.44;;;19.68;35.20
62544;BME280;48597;49.030;1.822;2023-01-30T01:49:45;101721.06;;;19.69;35.09
62544;BME280;48597;49.030;1.822;2023-01-30T01:52:12;101710.44;;;19.70;35.20
62544;BME280;48597;49.030;1.822;2023-01-30T01:54:52;101705.50;;;19.70;35.17
62544;BME280;48597;49.030;1.822;2023-01-30T01:57:25;101697.75;;;19.71;35.08
62544;BME280;48597;49.030;1.822;2023-01-30T02:00:07;101698.97;;;19.70;35.11
62544;BME280;48597;49.030;1.822;2023-01-30T02:02:41;101700.59;;;19.71;35.22
62544;BME280;48597;49.030;1.822;2023-01-30T02:05:07;101695.28;;;19.73;35.20
62544;BME280;48597;49.030;1.822;2023-01-30T02:13:14;101687.34;;;19.84;35.12
62544;BME280;48597;49.030;1.822;2023-01-30T02:15:39;101681.53;;;19.87;35.14
62544;BME280;48597;49.030;1.822;2023-01-30T02:18:04;101690.50;;;19.89;35.03
62544;BME280;48597;49.030;1.822;2023-01-30T02:23:16;101685.94;;;19.95;35.09
62544;BME280;48597;49.030;1.822;2023-01-30T02:28:32;101690.00;;;19.98;34.91
62544;BME280;48597;49.030;1.822;2023-01-30T02:33:35;101696.44;;;20.02;34.73
62544;BME280;48597;49.030;1.822;2023-01-30T02:43:49;101708.63;;;20.10;34.77
62544;BME280;48597;49.030;1.822;2023-01-30T02:46:18;101704.09;;;20.12;34.71
62544;BME280;48597;49.030;1.822;2023-01-30T02:48:46;101698.38;;;20.12;34.75
62544;BME280;48597;49.030;1.822;2023-01-30T02:51:17;101701.56;;;20.14;34.69
62544;BME280;48597;49.030;1.822;2023-01-30T02:53:44;101686.03;;;20.15;34.60
62544;BME280;48597;49.030;1.822;2023-01-30T02:56:10;101696.66;;;20.15;34.78
62544;BME280;48597;49.030;1.822;2023-01-30T02:58:43;101696.66;;;20.15;34.72
62544;BME280;48597;49.030;1.822;2023-01-30T03:01:20;101704.44;;;20.14;34.65
62544;BME280;48597;49.030;1.822;2023-01-30T03:03:54;101704.09;;;20.12;34.51
62544;BME280;48597;49.030;1.822;2023-01-30T03:11:24;101705.75;;;20.10;34.65
62544;BME280;48597;49.030;1.822;2023-01-30T03:16:27;101694.34;;;20.06;34.60
62544;BME280;48597;49.030;1.822;2023-01-30T03:18:55;101700.06;;;20.06;34.70
62544;BME280;48597;49.030;1.822;2023-01-30T03:21:21;101695.59;;;20.05;34.69
62544;BME280;48597;49.030;1.822;2023-01-30T03:23:47;101693.16;;;20.04;34.56
62544;BME280;48597;49.030;1.822;2023-01-30T03:26:17;101697.66;;;20.05;34.71
62544;BME280;48597;49.030;1.822;2023-01-30T03:28:44;101691.09;;;20.04;34.71
62544;BME280;48597;49.030;1.822;2023-01-30T03:31:10;101696.03;;;20.04;34.66
62544;BME280;48597;49.030;1.822;2023-01-30T03:33:36;101684.56;;;20.04;34.75
62544;BME280;48597;49.030;1.822;2023-01-30T03:36:01;101670.69;;;20.02;34.60
62544;BME280;48597;49.030;1.822;2023-01-30T03:38:26;101671.13;;;20.01;34.63
62544;BME280;48597;49.030;1.822;2023-01-30T03:40:52;101673.97;;;20.01;34.57
62544;BME280;48597;49.030;1.822;2023-01-30T03:43:17;101678.91;;;20.00;34.62
62544;BME280;48597;49.030;1.822;2023-01-30T03:45:42;101685.88;;;19.99;34.66
62544;BME280;48597;49.030;1.822;2023-01-30T03:48:09;101672.81;;;19.98;34.73
62544;BME280;48597;49.030;1.822;2023-01-30T03:50:34;101677.72;;;19.97;34.95
62544;BME280;48597;49.030;1.822;2023-01-30T03:52:59;101677.34;;;19.95;34.74
62544;BME280;48597;49.030;1.822;2023-01-30T03:55:26;101678.97;;;19.96;34.71
62544;BME280;48597;49.030;1.822;2023-01-30T03:57:55;101664.28;;;19.94;34.75
62544;BME280;48597;49.030;1.822;2023-01-30T04:00:20;101664.28;;;19.94;34.90
62544;BME280;48597;49.030;1.822;2023-01-30T04:02:46;101662.66;;;19.93;34.76
62544;BME280;48597;49.030;1.822;2023-01-30T04:05:11;101671.69;;;19.92;34.70
62544;BME280;48597;49.030;1.822;2023-01-30T04:07:36;101669.63;;;19.92;34.83
62544;BME280;48597;49.030;1.822;2023-01-30T04:10:02;101670.06;;;19.91;34.83
62544;BME280;48597;49.030;1.822;2023-01-30T04:12:27;101670.06;;;19.91;34.87
62544;BME280;48597;49.030;1.822;2023-01-30T04:14:52;101672.91;;;19.91;34.99
62544;BME280;48597;49.030;1.822;2023-01-30T04:17:17;101663.53;;;19.90;34.84
62544;BME280;48597;49.030;1.822;2023-01-30T04:19:43;101663.94;;;19.89;34.77
62544;BME280;48597;49.030;1.822;2023-01-30T04:22:08;101652.50;;;19.89;34.84
62544;BME280;48597;49.030;1.822;2023-01-30T04:24:33;101652.50;;;19.89;34.87
62544;BME280;48597;49.030;1.822;2023-01-30T04:26:58;101652.94;;;19.87;34.94
62544;BME280;48597;49.030;1.822;2023-01-30T04:29:24;101650.88;;;19.88;35.01
62544;BME280;48597;49.030;1.822;2023-01-30T04:31:49;101644.34;;;19.87;35.02
62544;BME280;48597;49.030;1.822;2023-01-30T04:34:14;101641.94;;;19.86;35.11
62544;BME280;48597;49.030;1.822;2023-01-30T04:36:39;101637.81;;;19.87;34.93
62544;BME280;48597;49.030;1.822;2023-01-30T04:39:05;101637.47;;;19.85;34.91
62544;BME280;48597;49.030;1.822;2023-01-30T04:41:31;101644.00;;;19.85;35.08
62544;BME280;48597;49.030;1.822;2023-01-30T04:43:56;101636.66;;;19.84;35.03
62544;BME280;48597;49.030;1.822;2023-01-30T04:46:21;101639.94;;;19.83;35.05
62544;BME280;48597;49.030;1.822;2023-01-30T04:48:46;101651.38;;;19.83;35.08
62544;BME280;48597;49.030;1.822;2023-01-30T04:51:12;101648.16;;;19.81;35.07
62544;BME280;48597;49.030;1.822;2023-01-30T04:53:37;101654.69;;;19.81;35.22
62544;BME280;48597;49.030;1.822;2023-01-30T04:56:02;101652.25;;;19.80;35.10
62544;BME280;48597;49.030;1.822;2023-01-30T04:58:28;101647.75;;;19.79;35.22
62544;BME280;48597;49.030;1.822;2023-01-30T05:00:53;101649.00;;;19.78;35.11
62544;BME280;48597;49.030;1.822;2023-01-30T05:03:18;101642.47;;;19.77;35.17
62544;BME280;48597;49.030;1.822;2023-01-30T05:05:47;101645.75;;;19.76;35.24
62544;BME280;48597;49.030;1.822;2023-01-30T05:08:13;101645.75;;;19.76;35.08
62544;BME280;48597;49.030;1.822;2023-01-30T05:10:38;101639.22;;;19.75;35.18
62544;BME280;48597;49.030;1.822;2023-01-30T05:13:04;101636.38;;;19.75;35.08
62544;BME280;48597;49.030;1.822;2023-01-30T05:15:29;101642.09;;;19.75;35.35
62544;BME280;48597;49.030;1.822;2023-01-30T05:17:55;101633.16;;;19.73;35.14
62544;BME280;48597;49.030;1.822;2023-01-30T05:20:20;101625.34;;;19.74;35.14
62544;BME280;48597;49.030;1.822;2023-01-30T05:22:45;101630.28;;;19.73;35.26
62544;BME280;48597;49.030;1.822;2023-01-30T05:25:11;101625.81;;;19.72;35.24
62544;BME280;48597;49.030;1.822;2023-01-30T05:27:36;101622.13;;;19.72;35.29
62544;BME280;48597;49.030;1.822;2023-01-30T05:30:02;101622.13;;;19.72;35.31
62544;BME280;48597;49.030;1.822;2023-01-30T05:32:28;101612.31;;;19.73;35.33
62544;BME280;48597;49.030;1.822;2023-01-30T05:34:55;101607.41;;;19.73;35.32
62544;BME280;48597;49.030;1.822;2023-01-30T05:37:20;101594.34;;;19.72;35.18
62544;BME280;48597;49.030;1.822;2023-01-30T05:39:46;101581.28;;;19.71;35.28
62544;BME280;48597;49.030;1.822;2023-01-30T05:42:11;101587.00;;;19.71;35.29
62544;BME280;48597;49.030;1.822;2023-01-30T05:44:36;101596.41;;;19.72;35.25
62544;BME280;48597;49.030;1.822;2023-01-30T05:47:02;101598.00;;;19.73;35.20
62544;BME280;48597;49.030;1.822;2023-01-30T05:49:27;101599.25;;;19.72;35.32
62544;BME280;48597;49.030;1.822;2023-01-30T05:51:52;101587.81;;;19.72;35.08
62544;BME280;48597;49.030;1.822;2023-01-30T05:54:17;101599.25;;;19.72;35.31
62544;BME280;48597;49.030;1.822;2023-01-30T05:56:42;101605.78;;;19.72;35.31
62544;BME280;48597;49.030;1.822;2023-01-30T05:59:08;101599.25;;;19.72;35.36
62544;BME280;48597;49.030;1.822;2023-01-30T06:01:35;101601.31;;;19.71;35.40
62544;BME280;48597;49.030;1.822;2023-01-30T06:04:00;101604.16;;;19.71;35.52
62544;BME280;48597;49.030;1.822;2023-01-30T06:06:26;101607.03;;;19.71;35.37
62544;BME280;48597;49.030;1.822;2023-01-30T06:08:52;101598.44;;;19.71;35.30
62544;BME280;48597;49.030;1.822;2023-01-30T06:11:18;101607.03;;;19.71;35.36
62544;BME280;48597;49.030;1.822;2023-01-30T06:13:43;101612.75;;;19.71;35.46
62544;BME280;48597;49.030;1.822;2023-01-30T06:16:09;101621.75;;;19.70;35.45
62544;BME280;48597;49.030;1.822;2023-01-30T06:18:38;101624.63;;;19.70;35.48
62544;BME280;48597;49.030;1.822;2023-01-30T06:21:03;101625.44;;;19.70;35.41
62544;BME280;48597;49.030;1.822;2023-01-30T06:23:29;101628.72;;;19.69;35.46
62544;BME280;48597;49.030;1.822;2023-01-30T06:25:54;101623.00;;;19.69;35.49
62544;BME280;48597;49.030;1.822;2023-01-30T06:28:20;101626.28;;;19.67;35.54
62544;BME280;48597;49.030;1.822;2023-01-30T06:30:45;101627.09;;;19.68;35.60
62544;BME280;48597;49.030;1.822;2023-01-30T06:33:10;101632.00;;;19.67;35.54
62544;BME280;48597;49.030;1.822;2023-01-30T06:35:36;101635.28;;;19.66;35.41
62544;BME280;48597;49.030;1.822;2023-01-30T06:38:02;101638.16;;;19.66;35.61
62544;BME280;48597;49.030;1.822;2023-01-30T06:40:28;101637.34;;;19.65;35.50
62544;BME280;48597;49.030;1.822;2023-01-30T06:42:53;101650.81;;;19.65;35.59
62544;BME280;48597;49.030;1.822;2023-01-30T06:45:19;101653.31;;;19.62;35.62
62544;BME280;48597;49.030;1.822;2023-01-30T06:47:45;101650.44;;;19.62;35.59
62544;BME280;48597;49.030;1.822;2023-01-30T06:50:11;101641.47;;;19.60;35.61
62544;BME280;48597;49.030;1.822;2023-01-30T06:52:39;101641.47;;;19.60;35.52
62544;BME280;48597;49.030;1.822;2023-01-30T06:55:04;101639.88;;;19.59;35.64
62544;BME280;48597;49.030;1.822;2023-01-30T06:57:30;101646.84;;;19.58;35.66
62544;BME280;48597;49.030;1.822;2023-01-30T06:59:55;101652.56;;;19.58;35.65
62544;BME280;48597;49.030;1.822;2023-01-30T07:02:20;101664.00;;;19.58;35.57
62544;BME280;48597;49.030;1.822;2023-01-30T07:04:45;101662.38;;;19.57;35.70
62544;BME280;48597;49.030;1.822;2023-01-30T07:07:11;101662.81;;;19.56;35.63
62544;BME280;48597;49.030;1.822;2023-01-30T07:09:36;101664.84;;;19.55;35.54
62544;BME280;48597;49.030;1.822;2023-01-30T07:12:01;101668.94;;;19.54;35.62
62544;BME280;48597;49.030;1.822;2023-01-30T07:14:26;101675.47;;;19.55;35.66
62544;BME280;48597;49.030;1.822;2023-01-30T07:16:52;101671.44;;;19.52;35.65
62544;BME280;48597;49.030;1.822;2023-01-30T07:19:17;101682.88;;;19.52;35.74
62544;BME280;48597;49.030;1.822;2023-01-30T07:21:42;101690.63;;;19.52;35.70
62544;BME280;48597;49.030;1.822;2023-01-30T07:24:07;101702.88;;;19.52;35.69
62544;BME280;48597;49.030;1.822;2023-01-30T07:26:33;101695.97;;;19.50;35.63
62544;BME280;48597;49.030;1.822;2023-01-30T07:28:59;101696.34;;;19.52;35.84
62544;BME280;48597;49.030;1.822;2023-01-30T07:31:24;101700.03;;;19.52;35.83
62544;BME280;48597;49.030;1.822;2023-01-30T07:33:49;101690.63;;;19.52;35.91
62544;BME280;48597;49.030;1.822;2023-01-30T07:36:14;101697.16;;;19.52;35.85
62544;BME280;48597;49.030;1.822;2023-01-30T07:38:39;101697.59;;;19.51;35.93
62544;BME280;48597;49.030;1.822;2023-01-30T07:41:06;101695.53;;;19.51;35.92
62544;BME280;48597;49.030;1.822;2023-01-30T07:43:31;101694.72;;;19.51;35.81
62544;BME280;48597;49.030;1.822;2023-01-30T07:45:58;101689.00;;;19.51;35.98
62544;BME280;48597;49.030;1.822;2023-01-30T07:48:25;101680.44;;;19.51;35.96
62544;BME280;48597;49.030;1.822;2023-01-30T07:50:53;101673.91;;;19.50;36.00
62544;BME280;48597;49.030;1.822;2023-01-30T07:53:20;101676.75;;;19.50;36.07
62544;BME280;48597;49.030;1.822;2023-01-30T07:55:45;101668.19;;;19.50;36.01
62544;BME280;48597;49.030;1.822;2023-01-30T07:58:11;101683.72;;;19.49;35.92
62544;BME280;48597;49.030;1.822;2023-01-30T08:00:37;101686.56;;;19.49;35.85
62544;BME280;48597;49.030;1.822;2023-01-30T08:03:02;101682.06;;;19.48;35.91
62544;BME280;48597;49.030;1.822;2023-01-30T08:05:29;101684.13;;;19.48;35.91
62544;BME280;48597;49.030;1.822;2023-01-30T08:07:54;101671.91;;;19.47;35.93
62544;BME280;48597;49.030;1.822;2023-01-30T08:10:20;101676.00;;;19.46;35.95
62544;BME280;48597;49.030;1.822;2023-01-30T08:12:48;101681.31;;;19.44;35.72
62544;BME280;48597;49.030;1.822;2023-01-30T08:15:13;101687.03;;;19.44;35.90
62544;BME280;48597;49.030;1.822;2023-01-30T08:17:39;101695.63;;;19.44;35.83
62544;BME280;48597;49.030;1.822;2023-01-30T08:20:04;101695.63;;;19.44;35.96
62544;BME280;48597;49.030;1.822;2023-01-30T08:22:29;101691.94;;;19.44;35.86
62544;BME280;48597;49.030;1.822;2023-01-30T08:24:55;101696.03;;;19.43;35.88
62544;BME280;48597;49.030;1.822;2023-01-30T08:27:20;101701.75;;;19.43;36.01
62544;BME280;48597;49.030;1.822;2023-01-30T08:29:45;101702.19;;;19.41;35.95
62544;BME280;48597;49.030;1.822;2023-01-30T08:32:11;101694.84;;;19.40;35.88
62544;BME280;48597;49.030;1.822;2023-01-30T08:34:36;101697.69;;;19.40;35.99
62544;BME280;48597;49.030;1.822;2023-01-30T08:37:01;101697.69;;;19.40;36.07
62544;BME280;48597;49.030;1.822;2023-01-30T08:39:27;101702.19;;;19.41;36.02
62544;BME280;48597;49.030;1.822;2023-01-30T08:41:52;101696.03;;;19.43;35.98
62544;BME280;48597;49.030;1.822;2023-01-30T08:44:17;101715.25;;;19.42;35.95
62544;BME280;48597;49.030;1.822;2023-01-30T08:46:43;101708.28;;;19.43;36.03
62544;BME280;48597;49.030;1.822;2023-01-30T08:49:08;101714.00;;;19.43;36.03
62544;BME280;48597;49.030;1.822;2023-01-30T08:51:34;101720.53;;;19.44;36.09
62544;BME280;48597;49.030;1.822;2023-01-30T08:53:59;101729.94;;;19.44;36.13
62544;BME280;48597;49.030;1.822;2023-01-30T08:56:24;101740.94;;;19.46;36.10
62544;BME280;48597;49.030;1.822;2023-01-30T08:58:50;101743.00;;;19.45;36.08
62544;BME280;48597;49.030;1.822;2023-01-30T09:01:15;101737.28;;;19.45;36.25
62544;BME280;48597;49.030;1.822;2023-01-30T09:03:40;101740.94;;;19.46;36.20
62544;BME280;48597;49.030;1.822;2023-01-30T09:06:06;101738.91;;;19.46;36.18
62544;BME280;48597;49.030;1.822;2023-01-30T09:08:31;101737.66;;;19.47;36.15
62544;BME280;48597;49.030;1.822;2023-01-30T09:11:00;101739.25;;;19.48;36.24
62544;BME280;48597;49.030;1.822;2023-01-30T09:13:26;101752.34;;;19.49;36.26
62544;BME280;48597;49.030;1.822;2023-01-30T09:15:52;101745.38;;;19.50;36.21
62544;BME280;48597;49.030;1.822;2023-01-30T09:18:17;101749.88;;;19.51;36.27
62544;BME280;48597;49.030;1.822;2023-01-30T09:20:42;101740.88;;;19.53;36.34
62544;BME280;48597;49.030;1.822;2023-01-30T09:23:07;101744.97;;;19.52;36.29
62544;BME280;48597;49.030;1.822;2023-01-30T09:25:33;101748.22;;;19.54;36.24
62544;BME280;48597;49.030;1.822;2023-01-30T09:27:58;101745.78;;;19.52;36.30
62544;BME280;48597;49.030;1.822;2023-01-30T09:30:24;101753.94;;;19.54;36.26
62544;BME280;48597;49.030;1.822;2023-01-30T09:32:49;101753.94;;;19.54;36.23
62544;BME280;48597;49.030;1.822;2023-01-30T09:35:15;101752.31;;;19.53;36.25
62544;BME280;48597;49.030;1.822;2023-01-30T09:37:50;101752.69;;;19.55;36.24
62544;BME280;48597;49.030;1.822;2023-01-30T09:40:16;101750.66;;;19.55;36.25
62544;BME280;48597;49.030;1.822;2023-01-30T09:53:15;101755.13;;;19.56;36.23
62544;BME280;48597;49.030;1.822;2023-01-30T09:55:42;101765.75;;;19.56;36.21
62544;BME280;48597;49.030;1.822;2023-01-30T09:58:21;101761.25;;;19.58;36.25
62544;BME280;48597;49.030;1.822;2023-01-30T10:00:47;101769.81;;;19.58;36.32
62544;BME280;48597;49.030;1.822;2023-01-30T10:03:14;101776.78;;;19.57;36.21
62544;BME280;48597;49.030;1.822;2023-01-30T10:05:48;101786.97;;;19.58;36.25
62544;BME280;48597;49.030;1.822;2023-01-30T10:26:46;101764.41;;;19.64;36.61
62544;BME280;48597;49.030;1.822;2023-01-30T10:29:17;101760.75;;;19.63;36.63
62544;BME280;48597;49.030;1.822;2023-01-30T10:31:48;101757.88;;;19.63;36.62
62544;BME280;48597;49.030;1.822;2023-01-30T10:36:54;101754.59;;;19.65;36.87
62544;BME280;48597;49.030;1.822;2023-01-30T10:42:08;101766.44;;;19.67;36.95
62544;BME280;48597;49.030;1.822;2023-01-30T10:44:33;101763.56;;;19.67;36.90
62544;BME280;48597;49.030;1.822;2023-01-30T11:03:34;101759.88;;;19.70;37.04
62544;BME280;48597;49.030;1.822;2023-01-30T11:08:17;101751.28;;;19.70;37.01
62544;BME280;48597;49.030;1.822;2023-01-30T11:10:43;101748.00;;;19.72;37.11
62544;BME280;48597;49.030;1.822;2023-01-30T11:13:21;101757.38;;;19.72;37.02
62544;BME280;48597;49.030;1.822;2023-01-30T11:15:49;101768.84;;;19.72;36.92
62544;BME280;48597;49.030;1.822;2023-01-30T11:18:15;101745.13;;;19.72;36.91
62544;BME280;48597;49.030;1.822;2023-01-30T11:20:42;101750.84;;;19.72;37.23
62544;BME280;48597;49.030;1.822;2023-01-30T11:23:23;101762.31;;;19.72;37.14
62544;BME280;48597;49.030;1.822;2023-01-30T11:25:49;101756.56;;;19.72;37.14
62544;BME280;48597;49.030;1.822;2023-01-30T11:28:15;101759.00;;;19.73;37.23
62544;BME280;48597;49.030;1.822;2023-01-30T11:30:48;101744.31;;;19.71;37.30
62544;BME280;48597;49.030;1.822;2023-01-30T11:33:16;101743.09;;;19.72;37.49
62544;BME280;48597;49.030;1.822;2023-01-30T11:35:52;101738.19;;;19.73;37.44
62544;BME280;48597;49.030;1.822;2023-01-30T11:38:19;101735.75;;;19.71;37.42
62544;BME280;48597;49.030;1.822;2023-01-30T11:40:45;101730.03;;;19.71;37.42
62544;BME280;48597;49.030;1.822;2023-01-30T11:43:11;101718.97;;;19.73;37.44
62544;BME280;48597;49.030;1.822;2023-01-30T11:45:41;101722.25;;;19.72;37.23
62544;BME280;48597;49.030;1.822;2023-01-30T11:48:23;101721.81;;;19.73;37.21
62544;BME280;48597;49.030;1.822;2023-01-30T11:50:53;101715.28;;;19.73;37.29
62544;BME280;48597;49.030;1.822;2023-01-30T11:53:35;101727.97;;;19.72;37.45
62544;BME280;48597;49.030;1.822;2023-01-30T11:56:13;101721.44;;;19.71;37.60
62544;BME280;48597;49.030;1.822;2023-01-30T11:58:40;101716.53;;;19.72;37.45
62544;BME280;48597;49.030;1.822;2023-01-30T12:01:07;101721.81;;;19.73;37.40
62544;BME280;48597;49.030;1.822;2023-01-30T12:03:34;101716.88;;;19.74;37.57
62544;BME280;48597;49.030;1.822;2023-01-30T12:06:03;101714.47;;;19.72;37.76
62544;BME280;48597;49.030;1.822;2023-01-30T12:08:36;101713.25;;;19.73;37.53
62544;BME280;48597;49.030;1.822;2023-01-30T12:11:02;101721.00;;;19.73;37.54
62544;BME280;48597;49.030;1.822;2023-01-30T12:13:38;101712.44;;;19.73;37.50
62544;BME280;48597;49.030;1.822;2023-01-30T12:16:18;101708.75;;;19.72;37.74
62544;BME280;48597;49.030;1.822;2023-01-30T12:21:35;101706.72;;;19.73;37.68
62544;BME280;48597;49.030;1.822;2023-01-30T12:24:10;101704.66;;;19.73;37.71
62544;BME280;48597;49.030;1.822;2023-01-30T12:26:58;101698.13;;;19.73;37.71
62544;BME280;48597;49.030;1.822;2023-01-30T12:29:35;101698.13;;;19.73;37.88
62544;BME280;48597;49.030;1.822;2023-01-30T12:34:29;101686.69;;;19.73;37.81
62544;BME280;48597;49.030;1.822;2023-01-30T12:37:30;101688.75;;;19.72;37.71
62544;BME280;48597;49.030;1.822;2023-01-30T12:50:05;101670.34;;;19.73;37.88
62544;BME280;48597;49.030;1.822;2023-01-30T12:52:45;101676.84;;;19.74;37.78
62544;BME280;48597;49.030;1.822;2023-01-30T13:00:27;101656.38;;;19.75;37.88
62544;BME280;48597;49.030;1.822;2023-01-30T13:10:36;101657.19;;;19.76;37.96
62544;BME280;48597;49.030;1.822;2023-01-30T13:13:09;101655.16;;;19.76;38.02
62544;BME280;48597;49.030;1.822;2023-01-30T13:15:41;101644.53;;;19.77;37.98
62544;BME280;48597;49.030;1.822;2023-01-30T13:18:11;101649.44;;;19.76;38.01
62544;BME280;48597;49.030;1.822;2023-01-30T13:23:17;101643.72;;;19.76;37.87
62544;BME280;48597;49.030;1.822;2023-01-30T13:26:02;101651.47;;;19.76;38.14
62544;BME280;48597;49.030;1.822;2023-01-30T13:28:41;101646.19;;;19.74;38.06
62544;BME280;48597;49.030;1.822;2023-01-30T13:31:09;101636.38;;;19.75;38.00
62544;BME280;48597;49.030;1.822;2023-01-30T13:33:36;101624.91;;;19.75;38.18
62544;BME280;48597;49.030;1.822;2023-01-30T13:38:30;101634.69;;;19.78;38.03
62544;BME280;48597;49.030;1.822;2023-01-30T13:40:57;101632.66;;;19.78;38.12
62544;BME280;48597;49.030;1.822;2023-01-30T13:43:31;101637.56;;;19.78;38.25
62544;BME280;48597;49.030;1.822;2023-01-30T13:46:00;101634.69;;;19.78;38.27
62544;BME280;48597;49.030;1.822;2023-01-30T13:58:55;101631.84;;;19.78;38.36
62544;BME280;48597;49.030;1.822;2023-01-30T14:01:23;101633.84;;;19.81;38.19
62544;BME280;48597;49.030;1.822;2023-01-30T14:06:52;101638.75;;;19.80;38.19
62544;BME280;48597;49.030;1.822;2023-01-30T14:09:19;101640.81;;;19.80;38.39
62544;BME280;48597;49.030;1.822;2023-01-30T14:11:49;101637.94;;;19.80;38.37
62544;BME280;48597;49.030;1.822;2023-01-30T14:14:25;101647.34;;;19.80;38.46
62544;BME280;48597;49.030;1.822;2023-01-30T14:16:55;101655.91;;;19.80;38.28
62544;BME280;48597;49.030;1.822;2023-01-30T14:19:34;101666.13;;;19.81;38.37
62544;BME280;48597;49.030;1.822;2023-01-30T14:22:20;101664.50;;;19.80;38.27
62544;BME280;48597;49.030;1.822;2023-01-30T14:27:31;101662.44;;;19.81;38.37
62544;BME280;48597;49.030;1.822;2023-01-30T14:29:57;101674.69;;;19.81;38.18
62544;BME280;48597;49.030;1.822;2023-01-30T14:45:46;101680.81;;;19.83;38.34
62544;BME280;48597;49.030;1.822;2023-01-30T14:50:49;101667.69;;;19.86;38.38
62544;BME280;48597;49.030;1.822;2023-01-30T14:53:15;101678.34;;;19.85;38.55
62544;BME280;48597;49.030;1.822;2023-01-30T14:55:40;101689.78;;;19.85;38.38
62544;BME280;48597;49.030;1.822;2023-01-30T14:58:06;101692.63;;;19.85;38.47
62544;BME280;48597;49.030;1.822;2023-01-30T15:00:39;101695.03;;;19.87;38.38
62544;BME280;48597;49.030;1.822;2023-01-30T15:03:08;101695.50;;;19.85;38.39
62544;BME280;48597;49.030;1.822;2023-01-30T15:05:44;101703.63;;;19.87;38.51
62544;BME280;48597;49.030;1.822;2023-01-30T15:08:14;101712.66;;;19.85;38.39
62544;BME280;48597;49.030;1.822;2023-01-30T15:10:49;101714.25;;;19.86;38.33
62544;BME280;48597;49.030;1.822;2023-01-30T15:16:02;101709.34;;;19.87;38.47
62544;BME280;48597;49.030;1.822;2023-01-30T15:18:34;101710.63;;;19.86;38.48
62544;BME280;48597;49.030;1.822;2023-01-30T15:27:23;101740.38;;;19.88;38.32
62544;BME280;48597;49.030;1.822;2023-01-30T15:32:26;101746.53;;;19.87;38.47
62544;BME280;48597;49.030;1.822;2023-01-30T15:35:09;101733.84;;;19.88;38.55